sensor_id;sensor_type;location;lat;lon;timestamp;P1;durP1;ratioP1;P2;durP2;ratioP2
75189;SDS011;69198;44.694;37.790;2024-01-11T00:00:19;18.55;;;5.03;;
75189;SDS011;69198;44.694;37.790;2024-01-11T00:01:20;23.20;;;5.60;;
75189;SDS011;69198;44.694;37.790;2024-01-11T00:02:22;22.77;;;6.13;;
75189;SDS011;69198;44.694;37.790;2024-01-11T00:03:22;21.70;;;5.57;;
75189;SDS011;69198;44.694;37.790;2024-01-11T00:04:24;21.98;;;5.45;;
75189;SDS011;69198;44.694;37.790;2024-01-11T00:05:25;19.83;;;5.78;;
75189;SDS011;69198;44.694;37.790;2024-01-11T00:06:28;23.20;;;5.63;;
75189;SDS011;69198;44.694;37.790;2024-01-11T00:07:29;24.02;;;6.50;;
75189;SDS011;69198;44.694;37.790;2024-01-11T00:08:30;18.00;;;4.53;;
75189;SDS011;69198;44.694;37.790;2024-01-11T00:09:31;21.67;;;5.60;;
75189;SDS011;69198;44.694;37.790;2024-01-11T00:10:32;20.98;;;6.10;;
75189;SDS011;69198;44.694;37.790;2024-01-11T00:11:33;26.30;;;5.70;;
75189;SDS011;69198;44.694;37.790;2024-01-11T00:12:34;21.88;;;5.57;;
75189;SDS011;69198;44.694;37.790;2024-01-11T00:13:35;21.38;;;6.60;;
75189;SDS011;69198;44.694;37.790;2024-01-11T00:14:37;25.45;;;7.15;;
75189;SDS011;69198;44.694;37.790;2024-01-11T00:15:38;22.45;;;5.88;;
75189;SDS011;69198;44.694;37.790;2024-01-11T00:16:39;26.23;;;6.90;;
75189;SDS011;69198;44.694;37.790;2024-01-11T00:17:40;28.23;;;6.55;;
75189;SDS011;69198;44.694;37.790;2024-01-11T00:18:41;22.25;;;6.20;;
75189;SDS011;69198;44.694;37.790;2024-01-11T00:19:42;22.67;;;5.55;;
75189;SDS011;69198;44.694;37.790;2024-01-11T00:20:43;23.13;;;5.80;;
75189;SDS011;69198;44.694;37.790;2024-01-11T00:21:44;20.27;;;5.68;;
75189;SDS011;69198;44.694;37.790;2024-01-11T00:22:45;18.88;;;5.90;;
75189;SDS011;69198;44.694;37.790;2024-01-11T00:23:46;25.60;;;6.45;;
75189;SDS011;69198;44.694;37.790;2024-01-11T00:24:47;25.85;;;6.82;;
75189;SDS011;69198;44.694;37.790;2024-01-11T00:25:48;21.77;;;6.15;;
75189;SDS011;69198;44.694;37.790;2024-01-11T00:26:49;22.73;;;5.72;;
75189;SDS011;69198;44.694;37.790;2024-01-11T00:27:50;24.05;;;6.50;;
75189;SDS011;69198;44.694;37.790;2024-01-11T00:28:51;22.08;;;5.65;;
75189;SDS011;69198;44.694;37.790;2024-01-11T00:29:53;24.05;;;5.85;;
75189;SDS011;69198;44.694;37.790;2024-01-11T00:30:54;21.73;;;5.65;;
75189;SDS011;69198;44.694;37.790;2024-01-11T00:31:55;18.98;;;5.32;;
75189;SDS011;69198;44.694;37.790;2024-01-11T00:32:56;19.63;;;5.45;;
75189;SDS011;69198;44.694;37.790;2024-01-11T00:33:57;19.00;;;5.57;;
75189;SDS011;69198;44.694;37.790;2024-01-11T00:34:58;18.43;;;5.33;;
75189;SDS011;69198;44.694;37.790;2024-01-11T00:35:59;19.80;;;4.93;;
75189;SDS011;69198;44.694;37.790;2024-01-11T00:37:00;21.58;;;5.70;;
75189;SDS011;69198;44.694;37.790;2024-01-11T00:38:01;21.00;;;6.15;;
75189;SDS011;69198;44.694;37.790;2024-01-11T00:39:02;24.75;;;5.80;;
75189;SDS011;69198;44.694;37.790;2024-01-11T00:40:03;19.35;;;6.22;;
75189;SDS011;69198;44.694;37.790;2024-01-11T00:41:05;20.77;;;6.18;;
75189;SDS011;69198;44.694;37.790;2024-01-11T00:42:06;25.67;;;6.72;;
75189;SDS011;69198;44.694;37.790;2024-01-11T00:43:07;20.95;;;6.03;;
75189;SDS011;69198;44.694;37.790;2024-01-11T00:44:08;20.98;;;5.57;;
75189;SDS011;69198;44.694;37.790;2024-01-11T00:45:10;19.77;;;5.50;;
75189;SDS011;69198;44.694;37.790;2024-01-11T00:46:11;19.33;;;5.05;;
75189;SDS011;69198;44.694;37.790;2024-01-11T00:47:12;17.15;;;4.95;;
75189;SDS011;69198;44.694;37.790;2024-01-11T00:48:13;15.98;;;4.45;;
75189;SDS011;69198;44.694;37.790;2024-01-11T00:49:14;17.90;;;4.85;;
75189;SDS011;69198;44.694;37.790;2024-01-11T00:50:15;17.42;;;5.00;;
75189;SDS011;69198;44.694;37.790;2024-01-11T00:51:16;16.70;;;4.22;;
75189;SDS011;69198;44.694;37.790;2024-01-11T00:52:17;19.42;;;4.78;;
75189;SDS011;69198;44.694;37.790;2024-01-11T00:53:18;17.87;;;4.00;;
75189;SDS011;69198;44.694;37.790;2024-01-11T00:54:19;16.13;;;4.30;;
75189;SDS011;69198;44.694;37.790;2024-01-11T00:55:20;15.13;;;4.20;;
75189;SDS011;69198;44.694;37.790;2024-01-11T00:56:21;17.25;;;4.78;;
75189;SDS011;69198;44.694;37.790;2024-01-11T00:57:23;17.15;;;4.15;;
75189;SDS011;69198;44.694;37.790;2024-01-11T00:58:24;20.60;;;5.40;;
75189;SDS011;69198;44.694;37.790;2024-01-11T00:59:25;14.95;;;4.03;;
75189;SDS011;69198;44.694;37.790;2024-01-11T01:00:26;19.08;;;5.43;;
75189;SDS011;69198;44.694;37.790;2024-01-11T01:01:27;17.25;;;4.15;;
75189;SDS011;69198;44.694;37.790;2024-01-11T01:02:28;16.43;;;4.43;;
75189;SDS011;69198;44.694;37.790;2024-01-11T01:03:29;17.02;;;4.32;;
75189;SDS011;69198;44.694;37.790;2024-01-11T01:04:30;14.30;;;4.53;;
75189;SDS011;69198;44.694;37.790;2024-01-11T01:05:31;14.68;;;4.65;;
75189;SDS011;69198;44.694;37.790;2024-01-11T01:06:32;16.42;;;4.05;;
75189;SDS011;69198;44.694;37.790;2024-01-11T01:07:33;19.27;;;4.07;;
75189;SDS011;69198;44.694;37.790;2024-01-11T01:08:34;15.57;;;3.78;;
75189;SDS011;69198;44.694;37.790;2024-01-11T01:09:35;14.65;;;3.55;;
75189;SDS011;69198;44.694;37.790;2024-01-11T01:10:36;15.25;;;4.30;;
75189;SDS011;69198;44.694;37.790;2024-01-11T01:11:37;16.23;;;4.10;;
75189;SDS011;69198;44.694;37.790;2024-01-11T01:12:38;14.00;;;3.40;;
75189;SDS011;69198;44.694;37.790;2024-01-11T01:13:40;15.50;;;3.95;;
75189;SDS011;69198;44.694;37.790;2024-01-11T01:14:41;13.40;;;3.83;;
75189;SDS011;69198;44.694;37.790;2024-01-11T01:15:41;12.40;;;3.20;;
75189;SDS011;69198;44.694;37.790;2024-01-11T01:16:43;14.93;;;4.15;;
75189;SDS011;69198;44.694;37.790;2024-01-11T01:17:44;16.25;;;3.45;;
75189;SDS011;69198;44.694;37.790;2024-01-11T01:18:45;13.80;;;3.22;;
75189;SDS011;69198;44.694;37.790;2024-01-11T01:19:46;12.23;;;3.03;;
75189;SDS011;69198;44.694;37.790;2024-01-11T01:20:47;12.70;;;3.38;;
75189;SDS011;69198;44.694;37.790;2024-01-11T01:21:48;13.05;;;3.20;;
75189;SDS011;69198;44.694;37.790;2024-01-11T01:22:49;12.15;;;3.67;;
75189;SDS011;69198;44.694;37.790;2024-01-11T01:23:50;14.43;;;3.58;;
75189;SDS011;69198;44.694;37.790;2024-01-11T01:24:51;11.90;;;3.35;;
75189;SDS011;69198;44.694;37.790;2024-01-11T01:25:52;11.98;;;3.20;;
75189;SDS011;69198;44.694;37.790;2024-01-11T01:26:53;10.75;;;3.22;;
75189;SDS011;69198;44.694;37.790;2024-01-11T01:27:55;15.80;;;3.70;;
75189;SDS011;69198;44.694;37.790;2024-01-11T01:28:56;11.13;;;3.42;;
75189;SDS011;69198;44.694;37.790;2024-01-11T01:29:57;15.70;;;4.28;;
75189;SDS011;69198;44.694;37.790;2024-01-11T01:30:58;14.30;;;3.78;;
75189;SDS011;69198;44.694;37.790;2024-01-11T01:31:59;13.00;;;3.78;;
75189;SDS011;69198;44.694;37.790;2024-01-11T01:33:00;14.52;;;3.92;;
75189;SDS011;69198;44.694;37.790;2024-01-11T01:34:01;15.43;;;4.45;;
75189;SDS011;69198;44.694;37.790;2024-01-11T01:35:02;14.17;;;3.80;;
75189;SDS011;69198;44.694;37.790;2024-01-11T01:36:07;13.90;;;3.42;;
75189;SDS011;69198;44.694;37.790;2024-01-11T01:37:09;16.27;;;3.92;;
75189;SDS011;69198;44.694;37.790;2024-01-11T01:38:10;13.18;;;4.05;;
75189;SDS011;69198;44.694;37.790;2024-01-11T01:39:11;13.63;;;3.67;;
75189;SDS011;69198;44.694;37.790;2024-01-11T01:40:12;14.80;;;4.68;;
75189;SDS011;69198;44.694;37.790;2024-01-11T01:41:14;16.85;;;5.05;;
75189;SDS011;69198;44.694;37.790;2024-01-11T01:42:15;21.13;;;6.80;;
75189;SDS011;69198;44.694;37.790;2024-01-11T01:43:16;15.27;;;4.88;;
75189;SDS011;69198;44.694;37.790;2024-01-11T01:44:17;16.83;;;4.90;;
75189;SDS011;69198;44.694;37.790;2024-01-11T01:45:18;20.02;;;4.65;;
75189;SDS011;69198;44.694;37.790;2024-01-11T01:46:20;13.77;;;4.15;;
75189;SDS011;69198;44.694;37.790;2024-01-11T01:47:23;14.00;;;3.80;;
75189;SDS011;69198;44.694;37.790;2024-01-11T01:48:26;14.02;;;3.75;;
75189;SDS011;69198;44.694;37.790;2024-01-11T01:49:28;17.88;;;4.60;;
75189;SDS011;69198;44.694;37.790;2024-01-11T01:50:29;15.38;;;4.15;;
75189;SDS011;69198;44.694;37.790;2024-01-11T01:51:31;13.25;;;3.63;;
75189;SDS011;69198;44.694;37.790;2024-01-11T01:52:33;16.65;;;4.30;;
75189;SDS011;69198;44.694;37.790;2024-01-11T01:53:35;13.10;;;3.90;;
75189;SDS011;69198;44.694;37.790;2024-01-11T01:54:37;14.10;;;3.73;;
75189;SDS011;69198;44.694;37.790;2024-01-11T01:55:38;14.77;;;3.42;;
75189;SDS011;69198;44.694;37.790;2024-01-11T01:56:39;13.95;;;3.42;;
75189;SDS011;69198;44.694;37.790;2024-01-11T01:57:40;17.13;;;4.82;;
75189;SDS011;69198;44.694;37.790;2024-01-11T01:58:44;15.23;;;4.18;;
75189;SDS011;69198;44.694;37.790;2024-01-11T01:59:46;16.77;;;5.03;;
75189;SDS011;69198;44.694;37.790;2024-01-11T02:00:52;13.38;;;3.35;;
75189;SDS011;69198;44.694;37.790;2024-01-11T02:01:54;12.15;;;3.92;;
75189;SDS011;69198;44.694;37.790;2024-01-11T02:02:55;15.05;;;4.22;;
75189;SDS011;69198;44.694;37.790;2024-01-11T02:03:57;14.45;;;4.32;;
75189;SDS011;69198;44.694;37.790;2024-01-11T02:04:58;15.93;;;4.30;;
75189;SDS011;69198;44.694;37.790;2024-01-11T02:06:00;15.60;;;4.57;;
75189;SDS011;69198;44.694;37.790;2024-01-11T02:07:02;15.75;;;4.38;;
75189;SDS011;69198;44.694;37.790;2024-01-11T02:08:03;16.55;;;4.82;;
75189;SDS011;69198;44.694;37.790;2024-01-11T02:09:10;16.17;;;4.55;;
75189;SDS011;69198;44.694;37.790;2024-01-11T02:10:12;15.50;;;4.05;;
75189;SDS011;69198;44.694;37.790;2024-01-11T02:11:13;13.68;;;3.55;;
75189;SDS011;69198;44.694;37.790;2024-01-11T02:12:14;15.70;;;4.25;;
75189;SDS011;69198;44.694;37.790;2024-01-11T02:13:16;12.57;;;3.65;;
75189;SDS011;69198;44.694;37.790;2024-01-11T02:14:17;16.73;;;4.32;;
75189;SDS011;69198;44.694;37.790;2024-01-11T02:15:19;15.07;;;4.50;;
75189;SDS011;69198;44.694;37.790;2024-01-11T02:16:20;18.88;;;4.45;;
75189;SDS011;69198;44.694;37.790;2024-01-11T02:17:21;14.18;;;4.15;;
75189;SDS011;69198;44.694;37.790;2024-01-11T02:18:22;15.00;;;4.30;;
75189;SDS011;69198;44.694;37.790;2024-01-11T02:19:24;16.55;;;4.50;;
75189;SDS011;69198;44.694;37.790;2024-01-11T02:20:25;15.18;;;4.00;;
75189;SDS011;69198;44.694;37.790;2024-01-11T02:21:26;17.63;;;4.70;;
75189;SDS011;69198;44.694;37.790;2024-01-11T02:22:31;15.32;;;4.30;;
75189;SDS011;69198;44.694;37.790;2024-01-11T02:23:42;17.67;;;4.07;;
75189;SDS011;69198;44.694;37.790;2024-01-11T02:24:47;14.90;;;4.10;;
75189;SDS011;69198;44.694;37.790;2024-01-11T02:25:48;16.23;;;4.93;;
75189;SDS011;69198;44.694;37.790;2024-01-11T02:26:59;17.10;;;5.07;;
75189;SDS011;69198;44.694;37.790;2024-01-11T02:28:01;15.57;;;4.72;;
75189;SDS011;69198;44.694;37.790;2024-01-11T02:29:02;16.02;;;4.18;;
75189;SDS011;69198;44.694;37.790;2024-01-11T02:30:03;15.15;;;4.38;;
75189;SDS011;69198;44.694;37.790;2024-01-11T02:31:05;15.65;;;4.32;;
75189;SDS011;69198;44.694;37.790;2024-01-11T02:32:06;16.42;;;4.40;;
75189;SDS011;69198;44.694;37.790;2024-01-11T02:33:08;16.70;;;4.45;;
75189;SDS011;69198;44.694;37.790;2024-01-11T02:34:10;15.70;;;4.68;;
75189;SDS011;69198;44.694;37.790;2024-01-11T02:35:11;16.93;;;4.53;;
75189;SDS011;69198;44.694;37.790;2024-01-11T02:36:13;17.50;;;5.03;;
75189;SDS011;69198;44.694;37.790;2024-01-11T02:37:14;18.02;;;4.85;;
75189;SDS011;69198;44.694;37.790;2024-01-11T02:38:17;15.68;;;4.90;;
75189;SDS011;69198;44.694;37.790;2024-01-11T02:39:18;16.92;;;5.20;;
75189;SDS011;69198;44.694;37.790;2024-01-11T02:40:20;18.23;;;5.43;;
75189;SDS011;69198;44.694;37.790;2024-01-11T02:41:22;18.60;;;5.30;;
75189;SDS011;69198;44.694;37.790;2024-01-11T02:42:24;19.98;;;5.43;;
75189;SDS011;69198;44.694;37.790;2024-01-11T02:43:25;18.33;;;4.80;;
75189;SDS011;69198;44.694;37.790;2024-01-11T02:44:26;16.92;;;4.57;;
75189;SDS011;69198;44.694;37.790;2024-01-11T02:45:27;16.47;;;4.53;;
75189;SDS011;69198;44.694;37.790;2024-01-11T02:46:28;16.88;;;4.93;;
75189;SDS011;69198;44.694;37.790;2024-01-11T02:47:30;19.65;;;5.03;;
75189;SDS011;69198;44.694;37.790;2024-01-11T02:48:31;18.40;;;5.40;;
75189;SDS011;69198;44.694;37.790;2024-01-11T02:49:32;18.05;;;5.20;;
75189;SDS011;69198;44.694;37.790;2024-01-11T02:50:34;16.80;;;5.05;;
75189;SDS011;69198;44.694;37.790;2024-01-11T02:51:34;17.85;;;4.88;;
75189;SDS011;69198;44.694;37.790;2024-01-11T02:52:37;16.17;;;4.78;;
75189;SDS011;69198;44.694;37.790;2024-01-11T02:53:38;19.27;;;5.17;;
75189;SDS011;69198;44.694;37.790;2024-01-11T02:54:39;15.07;;;4.70;;
75189;SDS011;69198;44.694;37.790;2024-01-11T02:55:40;22.00;;;5.97;;
75189;SDS011;69198;44.694;37.790;2024-01-11T02:56:41;15.15;;;4.45;;
75189;SDS011;69198;44.694;37.790;2024-01-11T02:57:42;18.27;;;4.88;;
75189;SDS011;69198;44.694;37.790;2024-01-11T02:58:43;16.63;;;5.32;;
75189;SDS011;69198;44.694;37.790;2024-01-11T02:59:44;20.60;;;5.72;;
75189;SDS011;69198;44.694;37.790;2024-01-11T03:00:45;20.80;;;6.00;;
75189;SDS011;69198;44.694;37.790;2024-01-11T03:01:46;20.42;;;5.70;;
75189;SDS011;69198;44.694;37.790;2024-01-11T03:02:47;17.70;;;5.35;;
75189;SDS011;69198;44.694;37.790;2024-01-11T03:03:48;19.17;;;6.00;;
75189;SDS011;69198;44.694;37.790;2024-01-11T03:04:49;16.02;;;4.80;;
75189;SDS011;69198;44.694;37.790;2024-01-11T03:05:50;20.08;;;6.32;;
75189;SDS011;69198;44.694;37.790;2024-01-11T03:06:51;19.77;;;5.88;;
75189;SDS011;69198;44.694;37.790;2024-01-11T03:07:52;19.33;;;5.80;;
75189;SDS011;69198;44.694;37.790;2024-01-11T03:08:53;19.13;;;6.10;;
75189;SDS011;69198;44.694;37.790;2024-01-11T03:09:54;20.83;;;5.78;;
75189;SDS011;69198;44.694;37.790;2024-01-11T03:10:55;23.08;;;6.35;;
75189;SDS011;69198;44.694;37.790;2024-01-11T03:11:56;22.50;;;5.95;;
75189;SDS011;69198;44.694;37.790;2024-01-11T03:12:57;18.63;;;6.35;;
75189;SDS011;69198;44.694;37.790;2024-01-11T03:13:58;20.17;;;6.13;;
75189;SDS011;69198;44.694;37.790;2024-01-11T03:15:00;19.65;;;5.43;;
75189;SDS011;69198;44.694;37.790;2024-01-11T03:16:00;18.17;;;5.87;;
75189;SDS011;69198;44.694;37.790;2024-01-11T03:17:02;19.08;;;5.47;;
75189;SDS011;69198;44.694;37.790;2024-01-11T03:18:03;19.60;;;5.95;;
75189;SDS011;69198;44.694;37.790;2024-01-11T03:19:04;17.55;;;5.53;;
75189;SDS011;69198;44.694;37.790;2024-01-11T03:20:05;20.80;;;5.13;;
75189;SDS011;69198;44.694;37.790;2024-01-11T03:21:07;21.83;;;6.13;;
75189;SDS011;69198;44.694;37.790;2024-01-11T03:22:08;22.70;;;5.95;;
75189;SDS011;69198;44.694;37.790;2024-01-11T03:23:09;22.15;;;5.70;;
75189;SDS011;69198;44.694;37.790;2024-01-11T03:24:10;20.63;;;5.63;;
75189;SDS011;69198;44.694;37.790;2024-01-11T03:25:11;19.05;;;5.38;;
75189;SDS011;69198;44.694;37.790;2024-01-11T03:26:15;21.17;;;6.20;;
75189;SDS011;69198;44.694;37.790;2024-01-11T03:27:17;19.38;;;5.85;;
75189;SDS011;69198;44.694;37.790;2024-01-11T03:28:18;22.98;;;5.63;;
75189;SDS011;69198;44.694;37.790;2024-01-11T03:29:19;18.75;;;5.45;;
75189;SDS011;69198;44.694;37.790;2024-01-11T03:30:20;20.85;;;6.63;;
75189;SDS011;69198;44.694;37.790;2024-01-11T03:31:21;17.60;;;5.72;;
75189;SDS011;69198;44.694;37.790;2024-01-11T03:32:22;22.13;;;5.82;;
75189;SDS011;69198;44.694;37.790;2024-01-11T03:33:24;24.90;;;5.93;;
75189;SDS011;69198;44.694;37.790;2024-01-11T03:34:25;24.17;;;6.55;;
75189;SDS011;69198;44.694;37.790;2024-01-11T03:35:26;21.90;;;7.00;;
75189;SDS011;69198;44.694;37.790;2024-01-11T03:36:27;23.20;;;6.50;;
75189;SDS011;69198;44.694;37.790;2024-01-11T03:37:28;20.13;;;5.72;;
75189;SDS011;69198;44.694;37.790;2024-01-11T03:38:29;21.17;;;5.97;;
75189;SDS011;69198;44.694;37.790;2024-01-11T03:39:30;20.70;;;6.13;;
75189;SDS011;69198;44.694;37.790;2024-01-11T03:40:31;19.45;;;5.93;;
75189;SDS011;69198;44.694;37.790;2024-01-11T03:41:32;20.15;;;5.95;;
75189;SDS011;69198;44.694;37.790;2024-01-11T03:42:33;18.05;;;6.63;;
75189;SDS011;69198;44.694;37.790;2024-01-11T03:43:34;23.03;;;5.80;;
75189;SDS011;69198;44.694;37.790;2024-01-11T03:44:36;24.55;;;7.13;;
75189;SDS011;69198;44.694;37.790;2024-01-11T03:45:38;22.50;;;6.68;;
75189;SDS011;69198;44.694;37.790;2024-01-11T03:46:39;21.85;;;6.13;;
75189;SDS011;69198;44.694;37.790;2024-01-11T03:47:40;22.52;;;6.78;;
75189;SDS011;69198;44.694;37.790;2024-01-11T03:48:42;21.42;;;6.63;;
75189;SDS011;69198;44.694;37.790;2024-01-11T03:49:43;22.83;;;6.60;;
75189;SDS011;69198;44.694;37.790;2024-01-11T03:50:44;22.80;;;6.65;;
75189;SDS011;69198;44.694;37.790;2024-01-11T03:51:45;21.05;;;6.28;;
75189;SDS011;69198;44.694;37.790;2024-01-11T03:52:46;21.77;;;6.68;;
75189;SDS011;69198;44.694;37.790;2024-01-11T03:53:47;21.85;;;7.05;;
75189;SDS011;69198;44.694;37.790;2024-01-11T03:54:49;24.65;;;7.50;;
75189;SDS011;69198;44.694;37.790;2024-01-11T03:55:50;26.23;;;7.35;;
75189;SDS011;69198;44.694;37.790;2024-01-11T03:56:52;25.02;;;7.60;;
75189;SDS011;69198;44.694;37.790;2024-01-11T03:57:53;24.90;;;7.57;;
75189;SDS011;69198;44.694;37.790;2024-01-11T03:58:54;25.42;;;7.30;;
75189;SDS011;69198;44.694;37.790;2024-01-11T03:59:55;22.03;;;6.43;;
75189;SDS011;69198;44.694;37.790;2024-01-11T04:00:56;24.45;;;7.75;;
75189;SDS011;69198;44.694;37.790;2024-01-11T04:01:57;25.17;;;7.32;;
75189;SDS011;69198;44.694;37.790;2024-01-11T04:02:59;26.38;;;8.05;;
75189;SDS011;69198;44.694;37.790;2024-01-11T04:04:02;25.50;;;7.15;;
75189;SDS011;69198;44.694;37.790;2024-01-11T04:05:03;22.90;;;7.00;;
75189;SDS011;69198;44.694;37.790;2024-01-11T04:06:05;22.73;;;6.75;;
75189;SDS011;69198;44.694;37.790;2024-01-11T04:07:06;30.88;;;8.20;;
75189;SDS011;69198;44.694;37.790;2024-01-11T04:08:07;22.85;;;7.72;;
75189;SDS011;69198;44.694;37.790;2024-01-11T04:09:08;28.57;;;8.73;;
75189;SDS011;69198;44.694;37.790;2024-01-11T04:10:09;27.40;;;7.88;;
75189;SDS011;69198;44.694;37.790;2024-01-11T04:11:11;26.80;;;7.55;;
75189;SDS011;69198;44.694;37.790;2024-01-11T04:12:12;27.92;;;7.03;;
75189;SDS011;69198;44.694;37.790;2024-01-11T04:13:16;26.98;;;8.65;;
75189;SDS011;69198;44.694;37.790;2024-01-11T04:14:17;27.60;;;7.78;;
75189;SDS011;69198;44.694;37.790;2024-01-11T04:15:18;29.60;;;8.38;;
75189;SDS011;69198;44.694;37.790;2024-01-11T04:16:20;22.40;;;7.07;;
75189;SDS011;69198;44.694;37.790;2024-01-11T04:17:21;24.90;;;7.93;;
75189;SDS011;69198;44.694;37.790;2024-01-11T04:18:22;22.20;;;6.82;;
75189;SDS011;69198;44.694;37.790;2024-01-11T04:19:23;24.88;;;6.85;;
75189;SDS011;69198;44.694;37.790;2024-01-11T04:20:25;26.25;;;8.07;;
75189;SDS011;69198;44.694;37.790;2024-01-11T04:21:26;22.65;;;7.47;;
75189;SDS011;69198;44.694;37.790;2024-01-11T04:22:31;28.38;;;7.97;;
75189;SDS011;69198;44.694;37.790;2024-01-11T04:23:32;24.45;;;8.85;;
75189;SDS011;69198;44.694;37.790;2024-01-11T04:24:33;30.27;;;8.75;;
75189;SDS011;69198;44.694;37.790;2024-01-11T04:25:34;28.05;;;7.85;;
75189;SDS011;69198;44.694;37.790;2024-01-11T04:26:36;30.67;;;9.10;;
75189;SDS011;69198;44.694;37.790;2024-01-11T04:27:37;26.98;;;8.73;;
75189;SDS011;69198;44.694;37.790;2024-01-11T04:28:38;26.83;;;8.75;;
75189;SDS011;69198;44.694;37.790;2024-01-11T04:29:39;27.52;;;8.55;;
75189;SDS011;69198;44.694;37.790;2024-01-11T04:30:40;28.63;;;8.40;;
75189;SDS011;69198;44.694;37.790;2024-01-11T04:31:41;29.77;;;9.02;;
75189;SDS011;69198;44.694;37.790;2024-01-11T04:32:42;24.63;;;8.23;;
75189;SDS011;69198;44.694;37.790;2024-01-11T04:33:43;27.17;;;7.50;;
75189;SDS011;69198;44.694;37.790;2024-01-11T04:34:45;29.27;;;8.43;;
75189;SDS011;69198;44.694;37.790;2024-01-11T04:35:46;31.10;;;8.45;;
75189;SDS011;69198;44.694;37.790;2024-01-11T04:36:47;30.60;;;8.70;;
75189;SDS011;69198;44.694;37.790;2024-01-11T04:37:48;28.48;;;8.10;;
75189;SDS011;69198;44.694;37.790;2024-01-11T04:38:49;28.23;;;9.05;;
75189;SDS011;69198;44.694;37.790;2024-01-11T04:39:49;29.20;;;8.85;;
75189;SDS011;69198;44.694;37.790;2024-01-11T04:40:51;30.55;;;9.90;;
75189;SDS011;69198;44.694;37.790;2024-01-11T04:41:52;29.85;;;8.55;;
75189;SDS011;69198;44.694;37.790;2024-01-11T04:42:53;30.37;;;8.80;;
75189;SDS011;69198;44.694;37.790;2024-01-11T04:43:54;32.55;;;8.43;;
75189;SDS011;69198;44.694;37.790;2024-01-11T04:44:55;30.38;;;9.20;;
75189;SDS011;69198;44.694;37.790;2024-01-11T04:45:56;29.85;;;8.85;;
75189;SDS011;69198;44.694;37.790;2024-01-11T04:46:57;29.48;;;8.63;;
75189;SDS011;69198;44.694;37.790;2024-01-11T04:47:58;27.73;;;8.48;;
75189;SDS011;69198;44.694;37.790;2024-01-11T04:48:59;31.55;;;8.88;;
75189;SDS011;69198;44.694;37.790;2024-01-11T04:50:00;34.72;;;8.85;;
75189;SDS011;69198;44.694;37.790;2024-01-11T04:51:01;30.10;;;8.73;;
75189;SDS011;69198;44.694;37.790;2024-01-11T04:52:02;31.10;;;8.32;;
75189;SDS011;69198;44.694;37.790;2024-01-11T04:53:04;26.77;;;7.75;;
75189;SDS011;69198;44.694;37.790;2024-01-11T04:54:05;27.73;;;8.65;;
75189;SDS011;69198;44.694;37.790;2024-01-11T04:55:06;30.13;;;8.88;;
75189;SDS011;69198;44.694;37.790;2024-01-11T04:56:08;31.95;;;9.80;;
75189;SDS011;69198;44.694;37.790;2024-01-11T04:57:10;29.38;;;9.38;;
75189;SDS011;69198;44.694;37.790;2024-01-11T04:58:11;32.60;;;8.70;;
75189;SDS011;69198;44.694;37.790;2024-01-11T04:59:12;31.85;;;9.73;;
75189;SDS011;69198;44.694;37.790;2024-01-11T05:00:14;30.30;;;9.07;;
75189;SDS011;69198;44.694;37.790;2024-01-11T05:01:15;30.23;;;9.47;;
75189;SDS011;69198;44.694;37.790;2024-01-11T05:02:17;28.00;;;7.72;;
75189;SDS011;69198;44.694;37.790;2024-01-11T05:03:20;33.25;;;9.25;;
75189;SDS011;69198;44.694;37.790;2024-01-11T05:04:21;29.98;;;8.80;;
75189;SDS011;69198;44.694;37.790;2024-01-11T05:05:22;27.35;;;8.45;;
75189;SDS011;69198;44.694;37.790;2024-01-11T05:06:23;27.52;;;8.38;;
75189;SDS011;69198;44.694;37.790;2024-01-11T05:07:26;31.90;;;9.13;;
75189;SDS011;69198;44.694;37.790;2024-01-11T05:08:28;29.55;;;8.32;;
75189;SDS011;69198;44.694;37.790;2024-01-11T05:09:29;29.42;;;8.80;;
75189;SDS011;69198;44.694;37.790;2024-01-11T05:10:30;31.57;;;9.27;;
75189;SDS011;69198;44.694;37.790;2024-01-11T05:11:31;29.73;;;7.95;;
75189;SDS011;69198;44.694;37.790;2024-01-11T05:12:32;31.15;;;9.00;;
75189;SDS011;69198;44.694;37.790;2024-01-11T05:13:34;32.85;;;9.32;;
75189;SDS011;69198;44.694;37.790;2024-01-11T05:14:35;31.85;;;8.23;;
75189;SDS011;69198;44.694;37.790;2024-01-11T05:15:36;30.88;;;8.45;;
75189;SDS011;69198;44.694;37.790;2024-01-11T05:16:37;29.90;;;8.25;;
75189;SDS011;69198;44.694;37.790;2024-01-11T05:17:39;36.05;;;9.73;;
75189;SDS011;69198;44.694;37.790;2024-01-11T05:18:40;29.83;;;9.20;;
75189;SDS011;69198;44.694;37.790;2024-01-11T05:19:41;34.27;;;8.73;;
75189;SDS011;69198;44.694;37.790;2024-01-11T05:20:42;33.13;;;9.07;;
75189;SDS011;69198;44.694;37.790;2024-01-11T05:21:43;29.52;;;8.80;;
75189;SDS011;69198;44.694;37.790;2024-01-11T05:22:44;27.30;;;8.10;;
75189;SDS011;69198;44.694;37.790;2024-01-11T05:23:45;31.55;;;8.98;;
75189;SDS011;69198;44.694;37.790;2024-01-11T05:24:47;32.70;;;8.75;;
75189;SDS011;69198;44.694;37.790;2024-01-11T05:25:48;26.02;;;7.50;;
75189;SDS011;69198;44.694;37.790;2024-01-11T05:26:49;31.13;;;8.93;;
75189;SDS011;69198;44.694;37.790;2024-01-11T05:27:50;31.38;;;8.23;;
75189;SDS011;69198;44.694;37.790;2024-01-11T05:28:51;32.45;;;9.85;;
75189;SDS011;69198;44.694;37.790;2024-01-11T05:29:52;30.85;;;8.80;;
75189;SDS011;69198;44.694;37.790;2024-01-11T05:30:53;31.45;;;8.70;;
75189;SDS011;69198;44.694;37.790;2024-01-11T05:31:55;29.13;;;9.13;;
75189;SDS011;69198;44.694;37.790;2024-01-11T05:32:56;32.35;;;9.48;;
75189;SDS011;69198;44.694;37.790;2024-01-11T05:33:57;27.33;;;8.68;;
75189;SDS011;69198;44.694;37.790;2024-01-11T05:34:58;33.27;;;9.43;;
75189;SDS011;69198;44.694;37.790;2024-01-11T05:35:59;31.20;;;9.38;;
75189;SDS011;69198;44.694;37.790;2024-01-11T05:37:00;30.65;;;8.90;;
75189;SDS011;69198;44.694;37.790;2024-01-11T05:38:01;30.08;;;8.63;;
75189;SDS011;69198;44.694;37.790;2024-01-11T05:39:02;27.52;;;8.32;;
75189;SDS011;69198;44.694;37.790;2024-01-11T05:40:03;29.10;;;8.32;;
75189;SDS011;69198;44.694;37.790;2024-01-11T05:41:05;26.95;;;7.95;;
75189;SDS011;69198;44.694;37.790;2024-01-11T05:42:06;30.25;;;9.45;;
75189;SDS011;69198;44.694;37.790;2024-01-11T05:43:07;34.30;;;8.87;;
75189;SDS011;69198;44.694;37.790;2024-01-11T05:44:08;30.67;;;7.88;;
75189;SDS011;69198;44.694;37.790;2024-01-11T05:45:09;35.45;;;8.95;;
75189;SDS011;69198;44.694;37.790;2024-01-11T05:46:10;31.45;;;9.60;;
75189;SDS011;69198;44.694;37.790;2024-01-11T05:47:11;31.58;;;9.32;;
75189;SDS011;69198;44.694;37.790;2024-01-11T05:48:12;36.20;;;9.40;;
75189;SDS011;69198;44.694;37.790;2024-01-11T05:49:14;28.73;;;8.80;;
75189;SDS011;69198;44.694;37.790;2024-01-11T05:50:15;27.90;;;8.80;;
75189;SDS011;69198;44.694;37.790;2024-01-11T05:51:16;35.83;;;9.18;;
75189;SDS011;69198;44.694;37.790;2024-01-11T05:52:17;32.13;;;9.00;;
75189;SDS011;69198;44.694;37.790;2024-01-11T05:53:18;31.98;;;9.35;;
75189;SDS011;69198;44.694;37.790;2024-01-11T05:54:21;31.92;;;9.30;;
75189;SDS011;69198;44.694;37.790;2024-01-11T05:55:22;28.80;;;8.73;;
75189;SDS011;69198;44.694;37.790;2024-01-11T05:56:23;30.38;;;8.88;;
75189;SDS011;69198;44.694;37.790;2024-01-11T05:57:24;33.53;;;9.75;;
75189;SDS011;69198;44.694;37.790;2024-01-11T05:58:25;30.30;;;9.10;;